createdAt,value
2023-01-20T00:01:00.582Z,95739.72
2023-01-20T00:02:02.665Z,95740.06
2023-01-20T00:03:04.224Z,95739.78
2023-01-20T00:04:06.033Z,95742.94
2023-01-20T00:05:08.148Z,95737.75
2023-01-20T00:06:10.090Z,95741.69
2023-01-20T00:07:11.633Z,95727.09
2023-01-20T00:08:13.196Z,95721.06
2023-01-20T00:09:16.964Z,95710.75
2023-01-20T00:10:18.699Z,95698.56
2023-01-20T00:11:21.069Z,95704.75
2023-01-20T00:12:22.591Z,95708.91
2023-01-20T00:13:24.339Z,95699.41
2023-01-20T00:14:27.765Z,95697.16
2023-01-20T00:15:29.280Z,95704.47
2023-01-20T00:16:32.334Z,95712.00
2023-01-20T00:17:33.944Z,95710.81
2023-01-20T00:18:35.823Z,95712.78
2023-01-20T00:19:37.339Z,95716.63
2023-01-20T00:20:38.831Z,95713.56
2023-01-20T00:21:41.275Z,95721.94
2023-01-20T00:22:42.815Z,95722.38
2023-01-20T00:23:45.317Z,95727.44
2023-01-20T00:24:46.868Z,95722.19
2023-01-20T00:25:48.395Z,95736.72
2023-01-20T00:26:49.964Z,95739.41
2023-01-20T00:27:55.122Z,95741.38
2023-01-20T00:29:00.121Z,95740.53
2023-01-20T00:30:01.700Z,95753.50
2023-01-20T00:31:38.768Z,95748.97
2023-01-20T00:32:44.943Z,95759.13
2023-01-20T00:33:48.289Z,95762.94
2023-01-20T00:34:49.815Z,95754.22
2023-01-20T00:35:51.327Z,95753.19
2023-01-20T00:36:52.886Z,95757.84
2023-01-20T00:37:54.532Z,95750.22
2023-01-20T00:38:56.061Z,95751.78
2023-01-20T00:39:57.611Z,95750.34
2023-01-20T00:40:59.511Z,95745.91
2023-01-20T00:42:01.049Z,95746.28
2023-01-20T00:43:02.608Z,95742.97
2023-01-20T00:44:04.237Z,95733.91
2023-01-20T00:45:06.301Z,95737.13
2023-01-20T00:46:08.345Z,95736.28
2023-01-20T00:47:09.905Z,95738.66
2023-01-20T00:48:11.472Z,95741.75
2023-01-20T00:49:13.358Z,95739.34
2023-01-20T00:50:15.151Z,95737.84
2023-01-20T00:51:16.744Z,95735.16
2023-01-20T00:52:21.393Z,95738.59
2023-01-20T00:53:22.948Z,95734.84
2023-01-20T00:54:24.454Z,95721.91
2023-01-20T00:55:26.011Z,95729.19
2023-01-20T00:56:27.567Z,95723.41
2023-01-20T00:57:29.141Z,95709.47
2023-01-20T00:58:30.754Z,95703.28
2023-01-20T00:59:32.322Z,95702.47
2023-01-20T01:00:33.956Z,95696.63
2023-01-20T01:01:35.619Z,95701.22
2023-01-20T01:02:40.213Z,95703.50
2023-01-20T01:03:41.840Z,95696.88
2023-01-20T01:04:43.469Z,95696.47
2023-01-20T01:05:45.913Z,95692.22
2023-01-20T01:06:49.433Z,95696.81
2023-01-20T01:07:50.965Z,95692.66
2023-01-20T01:08:53.106Z,95692.66
2023-01-20T01:09:54.670Z,95691.81
2023-01-20T01:10:56.280Z,95697.53
2023-01-20T01:11:58.053Z,95694.81
2023-01-20T01:13:00.994Z,95698.91
2023-01-20T01:14:02.517Z,95698.13
2023-01-20T01:15:04.723Z,95698.09
2023-01-20T01:16:11.858Z,95689.91
2023-01-20T01:17:13.418Z,95693.59
2023-01-20T01:18:15.032Z,95691.59
2023-01-20T01:19:18.927Z,95697.75
2023-01-20T01:20:20.546Z,95696.19
2023-01-20T01:21:22.464Z,95704.16
2023-01-20T01:22:24.129Z,95694.56
2023-01-20T01:23:25.677Z,95704.59
2023-01-20T01:24:27.300Z,95698.38
2023-01-20T01:25:28.843Z,95697.69
2023-01-20T01:26:30.456Z,95693.88
2023-01-20T01:27:32.007Z,95694.72
2023-01-20T01:28:33.554Z,95690.06
2023-01-20T01:29:35.149Z,95687.09
2023-01-20T01:30:36.736Z,95688.28
2023-01-20T01:31:39.089Z,95688.44
2023-01-20T01:32:40.726Z,95689.91
2023-01-20T01:33:42.738Z,95692.53
2023-01-20T01:34:44.307Z,95685.56
2023-01-20T01:35:57.984Z,95682.41
2023-01-20T01:36:59.675Z,95685.22
2023-01-20T01:38:01.235Z,95684.06
2023-01-20T01:39:03.043Z,95676.03
2023-01-20T01:40:05.256Z,95669.22
2023-01-20T01:41:06.968Z,95667.69
2023-01-20T01:42:13.365Z,95673.06
2023-01-20T01:43:32.867Z,95663.88
2023-01-20T01:44:36.920Z,95663.16
2023-01-20T01:45:38.674Z,95663.22
2023-01-20T01:46:41.459Z,95665.56
2023-01-20T01:47:48.456Z,95662.56
2023-01-20T01:48:50.085Z,95658.03
2023-01-20T01:49:52.262Z,95657.91
2023-01-20T01:50:58.508Z,95654.84
2023-01-20T01:52:03.528Z,95651.03
2023-01-20T01:53:06.575Z,95648.09
2023-01-20T01:54:30.046Z,95648.06
2023-01-20T01:55:36.658Z,95639.59
2023-01-20T01:56:40.125Z,95635.75
2023-01-20T01:57:41.941Z,95635.66
2023-01-20T01:58:48.804Z,95624.94
2023-01-20T01:59:50.955Z,95623.34
2023-01-20T02:00:53.025Z,95619.50
2023-01-20T02:01:55.561Z,95624.84
2023-01-20T02:02:57.942Z,95619.50
2023-01-20T02:04:12.319Z,95620.63
2023-01-20T02:05:16.318Z,95612.16
2023-01-20T02:06:18.756Z,95611.03
2023-01-20T02:07:22.018Z,95604.91
2023-01-20T02:08:24.354Z,95604.13
2023-01-20T02:09:27.518Z,95601.88
2023-01-20T02:10:30.090Z,95598.81
2023-01-20T02:11:38.022Z,95608.38
2023-01-20T02:12:40.858Z,95599.19
2023-01-20T02:13:42.508Z,95603.00
2023-01-20T02:14:47.604Z,95601.44
2023-01-20T02:16:20.682Z,95592.66
2023-01-20T02:17:25.083Z,95583.44
2023-01-20T02:18:49.650Z,95589.56
2023-01-20T02:20:14.860Z,95584.91
2023-01-20T02:21:30.592Z,95583.06
2023-01-20T02:23:03.165Z,95591.88
2023-01-20T02:24:17.930Z,95580.75
2023-01-20T02:25:25.356Z,95581.88
2023-01-20T02:26:45.540Z,95579.22
2023-01-20T02:28:14.731Z,95583.44
2023-01-20T02:29:41.186Z,95586.50
2023-01-20T02:31:21.019Z,95578.09
2023-01-20T02:32:28.538Z,95578.09
2023-01-20T02:33:35.737Z,95580.00
2023-01-20T02:35:03.570Z,95573.81
2023-01-20T02:36:37.796Z,95569.56
2023-01-20T02:38:17.646Z,95572.91
2023-01-20T02:39:36.560Z,95565.47
2023-01-20T02:41:03.341Z,95553.81
2023-01-20T02:42:12.754Z,95558.47
2023-01-20T02:43:14.223Z,95562.97
2023-01-20T02:44:33.274Z,95559.16
2023-01-20T02:45:49.869Z,95552.25
2023-01-20T02:47:04.170Z,95539.66
2023-01-20T02:48:22.423Z,95546.50
2023-01-20T02:49:41.526Z,95554.09
2023-01-20T02:51:05.383Z,95547.91
2023-01-20T02:52:12.028Z,95545.25
2023-01-20T02:53:15.251Z,95547.50
2023-01-20T02:54:19.715Z,95549.03
2023-01-20T02:55:33.856Z,95541.41
2023-01-20T02:56:36.736Z,95547.50
2023-01-20T02:57:52.206Z,95545.25
2023-01-20T02:59:01.566Z,95555.94
2023-01-20T03:00:09.524Z,95560.56
2023-01-20T03:01:15.770Z,95550.66
2023-01-20T03:02:24.474Z,95556.09
2023-01-20T03:03:38.978Z,95555.31
2023-01-20T03:05:17.004Z,95561.72
2023-01-20T03:06:24.230Z,95568.19
2023-01-20T03:07:29.550Z,95565.09
2023-01-20T03:08:33.179Z,95551.31
2023-01-20T03:09:40.652Z,95554.00
2023-01-20T03:10:45.431Z,95560.47
2023-01-20T03:11:57.536Z,95555.53
2023-01-20T03:13:20.442Z,95551.25
2023-01-20T03:14:22.335Z,95544.00
2023-01-20T03:15:30.552Z,95549.78
2023-01-20T03:16:32.613Z,95552.84
2023-01-20T03:17:35.028Z,95547.09
2023-01-20T03:18:37.845Z,95547.38
2023-01-20T03:19:39.404Z,95535.97
2023-01-20T03:20:40.988Z,95534.50
2023-01-20T03:21:42.618Z,95538.34
2023-01-20T03:22:44.239Z,95526.53
2023-01-20T03:23:54.577Z,95529.19
2023-01-20T03:24:57.882Z,95526.88
2023-01-20T03:25:59.536Z,95526.09
2023-01-20T03:27:01.170Z,95528.72
2023-01-20T03:28:03.251Z,95525.25
2023-01-20T03:29:11.627Z,95515.28
2023-01-20T03:30:15.385Z,95530.91
2023-01-20T03:31:20.179Z,95526.28
2023-01-20T03:32:26.696Z,95522.84
2023-01-20T03:33:28.316Z,95522.78
2023-01-20T03:34:33.334Z,95517.06
2023-01-20T03:35:35.004Z,95519.69
2023-01-20T03:36:37.347Z,95515.44
2023-01-20T03:37:39.079Z,95518.06
2023-01-20T03:38:40.936Z,95514.19
2023-01-20T03:39:42.563Z,95509.22
2023-01-20T03:40:55.666Z,95505.47
2023-01-20T03:42:31.800Z,95496.31
2023-01-20T03:43:58.487Z,95492.44
2023-01-20T03:45:06.027Z,95478.31
2023-01-20T03:46:19.307Z,95483.34
2023-01-20T03:47:48.422Z,95484.06
2023-01-20T03:48:53.961Z,95482.53
2023-01-20T03:50:21.506Z,95484.28
2023-01-20T03:51:34.327Z,95482.34
2023-01-20T03:52:49.032Z,95483.41
2023-01-20T03:53:59.929Z,95481.81
2023-01-20T03:55:07.236Z,95486.31
2023-01-20T03:56:23.015Z,95476.25
2023-01-20T03:57:35.311Z,95481.59
2023-01-20T03:58:40.751Z,95483.84
2023-01-20T03:59:45.661Z,95475.44
2023-01-20T04:00:49.660Z,95474.72
2023-01-20T04:01:53.501Z,95476.19
2023-01-20T04:02:55.752Z,95493.06
2023-01-20T04:03:58.141Z,95496.94
2023-01-20T04:05:01.605Z,95486.94
2023-01-20T04:06:05.990Z,95488.50
2023-01-20T04:07:11.959Z,95483.94
2023-01-20T04:08:16.321Z,95486.38
2023-01-20T04:09:24.580Z,95482.78
2023-01-20T04:10:30.317Z,95481.03
2023-01-20T04:11:32.017Z,95485.38
2023-01-20T04:12:33.595Z,95487.41
2023-01-20T04:13:35.761Z,95488.63
2023-01-20T04:14:37.544Z,95487.81
2023-01-20T04:15:44.779Z,95476.00
2023-01-20T04:16:55.633Z,95482.28
2023-01-20T04:17:57.129Z,95484.34
2023-01-20T04:18:58.684Z,95487.56
2023-01-20T04:20:06.283Z,95493.63
2023-01-20T04:21:13.602Z,95493.38
2023-01-20T04:22:15.056Z,95501.63
2023-01-20T04:23:32.540Z,95503.88
2023-01-20T04:24:40.201Z,95500.66
2023-01-20T04:25:42.108Z,95492.81
2023-01-20T04:26:43.705Z,95496.53
2023-01-20T04:27:45.283Z,95498.91
2023-01-20T04:28:46.927Z,95502.69
2023-01-20T04:29:48.455Z,95503.50
2023-01-20T04:30:50.779Z,95510.72
2023-01-20T04:32:01.990Z,95499.19
2023-01-20T04:33:03.636Z,95496.22
2023-01-20T04:34:05.939Z,95503.06
2023-01-20T04:35:07.680Z,95515.56
2023-01-20T04:36:09.776Z,95520.44
2023-01-20T04:37:11.309Z,95532.53
2023-01-20T04:38:12.850Z,95540.03
2023-01-20T04:39:14.347Z,95542.88
2023-01-20T04:40:16.156Z,95549.38
2023-01-20T04:41:17.676Z,95554.00
2023-01-20T04:42:19.307Z,95551.03
2023-01-20T04:43:20.896Z,95559.22
2023-01-20T04:44:22.515Z,95555.75
2023-01-20T04:45:24.210Z,95547.97
2023-01-20T04:46:26.717Z,95538.16
2023-01-20T04:47:32.469Z,95520.97
2023-01-20T04:48:33.995Z,95509.59
2023-01-20T04:49:35.746Z,95504.13
2023-01-20T04:50:41.202Z,95510.31
2023-01-20T04:51:42.834Z,95514.09
2023-01-20T04:52:44.660Z,95509.03
2023-01-20T04:53:46.187Z,95515.16
2023-01-20T04:54:47.711Z,95515.09
2023-01-20T04:55:49.306Z,95505.38
2023-01-20T04:56:51.169Z,95493.03
2023-01-20T04:57:52.696Z,95476.00
2023-01-20T04:58:54.203Z,95453.72
2023-01-20T04:59:55.748Z,95450.09
2023-01-20T05:00:57.300Z,95450.03
2023-01-20T05:01:59.019Z,95440.41
2023-01-20T05:03:02.491Z,95448.06
2023-01-20T05:04:04.133Z,95454.94
2023-01-20T05:05:05.892Z,95465.63
2023-01-20T05:06:07.544Z,95460.38
2023-01-20T05:07:09.451Z,95466.56
2023-01-20T05:08:11.006Z,95455.16
2023-01-20T05:09:16.435Z,95462.06
2023-01-20T05:10:18.000Z,95465.84
2023-01-20T05:11:19.880Z,95474.31
2023-01-20T05:12:21.575Z,95484.28
2023-01-20T05:13:26.056Z,95498.47
2023-01-20T05:14:27.647Z,95504.69
2023-01-20T05:15:29.275Z,95511.28
2023-01-20T05:16:32.119Z,95509.03
2023-01-20T05:17:33.683Z,95514.38
2023-01-20T05:18:35.725Z,95514.66
2023-01-20T05:19:37.328Z,95513.19
2023-01-20T05:20:38.924Z,95515.38
2023-01-20T05:21:41.239Z,95510.03
2023-01-20T05:22:42.800Z,95512.72
2023-01-20T05:23:44.352Z,95513.88
2023-01-20T05:24:45.915Z,95502.44
2023-01-20T05:25:53.667Z,95503.19
2023-01-20T05:26:55.233Z,95499.06
2023-01-20T05:27:56.762Z,95505.19
2023-01-20T05:28:58.308Z,95512.50
2023-01-20T05:29:59.851Z,95512.97
2023-01-20T05:31:01.494Z,95523.44
2023-01-20T05:32:03.355Z,95520.91
2023-01-20T05:33:04.948Z,95518.03
2023-01-20T05:34:06.593Z,95521.56
2023-01-20T05:35:09.073Z,95512.53
2023-01-20T05:36:11.842Z,95512.25
2023-01-20T05:37:17.297Z,95517.16
2023-01-20T05:38:18.930Z,95516.75
2023-01-20T05:39:21.811Z,95516.75
2023-01-20T05:40:23.387Z,95507.47
2023-01-20T05:41:24.953Z,95498.97
2023-01-20T05:42:26.443Z,95493.56
2023-01-20T05:43:28.016Z,95489.34
2023-01-20T05:44:29.514Z,95494.69
2023-01-20T05:45:32.510Z,95490.47
2023-01-20T05:46:34.210Z,95500.81
2023-01-20T05:47:35.864Z,95490.88
2023-01-20T05:48:37.472Z,95488.91
2023-01-20T05:49:38.996Z,95473.16
2023-01-20T05:50:40.576Z,95462.84
2023-01-20T05:51:42.095Z,95454.88
2023-01-20T05:52:43.622Z,95455.72
2023-01-20T05:53:45.275Z,95444.31
2023-01-20T05:54:46.838Z,95452.34
2023-01-20T05:55:48.847Z,95446.63
2023-01-20T05:56:50.391Z,95451.97
2023-01-20T05:57:51.966Z,95459.22
2023-01-20T05:58:56.530Z,95457.50
2023-01-20T05:59:58.095Z,95465.66
2023-01-20T06:01:07.453Z,95464.63
2023-01-20T06:02:09.114Z,95463.22
2023-01-20T06:03:10.642Z,95464.03
2023-01-20T06:04:12.198Z,95462.56
2023-01-20T06:05:14.187Z,95471.38
2023-01-20T06:06:18.267Z,95470.09
2023-01-20T06:07:19.865Z,95487.00
2023-01-20T06:08:21.525Z,95488.53
2023-01-20T06:09:23.078Z,95494.72
2023-01-20T06:10:27.937Z,95493.09
2023-01-20T06:11:29.544Z,95493.88
2023-01-20T06:12:31.205Z,95498.50
2023-01-20T06:13:32.782Z,95499.75
2023-01-20T06:14:34.395Z,95506.38
2023-01-20T06:15:35.904Z,95506.06
2023-01-20T06:16:37.456Z,95500.41
2023-01-20T06:17:38.979Z,95505.78
2023-01-20T06:18:40.495Z,95509.69
2023-01-20T06:19:42.067Z,95513.63
2023-01-20T06:20:43.604Z,95512.06
2023-01-20T06:21:47.027Z,95506.34
2023-01-20T06:22:48.595Z,95508.66
2023-01-20T06:23:50.248Z,95506.72
2023-01-20T06:24:52.377Z,95505.97
2023-01-20T06:26:02.264Z,95503.00
2023-01-20T06:27:03.927Z,95506.50
2023-01-20T06:28:05.465Z,95503.13
2023-01-20T06:29:07.016Z,95501.22
2023-01-20T06:30:09.318Z,95496.19
2023-01-20T06:31:13.765Z,95488.06
2023-01-20T06:32:15.377Z,95485.38
2023-01-20T06:33:16.947Z,95481.50
2023-01-20T06:34:18.504Z,95467.66
2023-01-20T06:35:20.980Z,95459.97
2023-01-20T06:36:23.011Z,95459.97
2023-01-20T06:37:24.603Z,95462.22
2023-01-20T06:38:29.048Z,95472.44
2023-01-20T06:39:30.689Z,95471.75
2023-01-20T06:40:32.335Z,95467.00
2023-01-20T06:41:34.111Z,95469.97
2023-01-20T06:42:35.623Z,95467.59
2023-01-20T06:43:40.062Z,95459.88
2023-01-20T06:44:41.720Z,95465.13
2023-01-20T06:45:43.291Z,95457.69
2023-01-20T06:46:46.745Z,95458.72
2023-01-20T06:47:49.906Z,95464.78
2023-01-20T06:48:51.560Z,95457.19
2023-01-20T06:49:53.145Z,95463.03
2023-01-20T06:51:00.731Z,95461.47
2023-01-20T06:52:02.302Z,95454.28
2023-01-20T06:53:04.066Z,95461.97
2023-01-20T06:54:05.774Z,95450.59
2023-01-20T06:55:07.707Z,95456.91
2023-01-20T06:56:11.401Z,95464.81
2023-01-20T06:57:12.974Z,95461.19
2023-01-20T06:58:14.485Z,95467.34
2023-01-20T06:59:16.012Z,95458.97
2023-01-20T07:00:17.852Z,95473.22
2023-01-20T07:01:28.108Z,95468.44
2023-01-20T07:02:29.878Z,95466.16
2023-01-20T07:03:31.511Z,95470.78
2023-01-20T07:04:33.079Z,95464.72
2023-01-20T07:05:34.609Z,95460.91
2023-01-20T07:06:38.744Z,95467.81
2023-01-20T07:07:40.413Z,95477.81
2023-01-20T07:08:43.847Z,95470.22
2023-01-20T07:09:45.378Z,95460.59
2023-01-20T07:10:46.917Z,95465.13
2023-01-20T07:11:48.535Z,95460.09
2023-01-20T07:12:50.045Z,95458.16
2023-01-20T07:13:51.579Z,95454.00
2023-01-20T07:14:53.095Z,95451.38
2023-01-20T07:15:54.649Z,95460.94
2023-01-20T07:16:56.337Z,95460.16
2023-01-20T07:17:58.282Z,95454.50
2023-01-20T07:18:59.893Z,95456.06
2023-01-20T07:20:01.455Z,95456.47
2023-01-20T07:21:04.928Z,95456.41
2023-01-20T07:22:06.511Z,95455.63
2023-01-20T07:23:08.096Z,95453.38
2023-01-20T07:24:09.910Z,95446.41
2023-01-20T07:25:11.488Z,95437.16
2023-01-20T07:26:16.766Z,95427.81
2023-01-20T07:27:18.278Z,95433.69
2023-01-20T07:28:19.828Z,95432.47
2023-01-20T07:29:21.472Z,95434.75
2023-01-20T07:30:23.323Z,95433.63
2023-01-20T07:31:27.913Z,95424.72
2023-01-20T07:32:30.995Z,95427.38
2023-01-20T07:33:32.924Z,95431.25
2023-01-20T07:34:34.641Z,95443.00
2023-01-20T07:35:36.271Z,95444.06
2023-01-20T07:36:37.784Z,95441.81
2023-01-20T07:37:39.387Z,95443.75
2023-01-20T07:38:41.562Z,95441.03
2023-01-20T07:39:43.092Z,95437.25
2023-01-20T07:40:44.636Z,95429.56
2023-01-20T07:41:50.153Z,95429.56
2023-01-20T07:42:52.232Z,95424.13
2023-01-20T07:43:53.811Z,95429.75
2023-01-20T07:44:55.380Z,95424.34
2023-01-20T07:45:58.649Z,95425.41
2023-01-20T07:47:00.174Z,95426.97
2023-01-20T07:48:03.827Z,95423.09
2023-01-20T07:49:05.414Z,95428.81
2023-01-20T07:50:07.271Z,95422.25
2023-01-20T07:51:11.582Z,95440.63
2023-01-20T07:52:13.096Z,95435.28
2023-01-20T07:53:14.655Z,95431.50
2023-01-20T07:54:16.158Z,95441.88
2023-01-20T07:55:17.755Z,95443.13
2023-01-20T07:56:25.167Z,95441.69
2023-01-20T07:57:30.132Z,95432.66
2023-01-20T07:58:32.285Z,95437.28
2023-01-20T07:59:33.867Z,95436.47
2023-01-20T08:00:35.405Z,95432.25
2023-01-20T08:01:37.072Z,95433.44
2023-01-20T08:02:39.415Z,95444.53
2023-01-20T08:03:41.319Z,95442.53
2023-01-20T08:04:43.153Z,95446.22
2023-01-20T08:05:44.757Z,95450.72
2023-01-20T08:06:46.587Z,95447.53
2023-01-20T08:07:52.205Z,95441.34
2023-01-20T08:08:54.466Z,95440.50
2023-01-20T08:09:56.040Z,95433.63
2023-01-20T08:10:58.458Z,95442.19
2023-01-20T08:12:00.212Z,95440.50
2023-01-20T08:13:01.793Z,95438.97
2023-01-20T08:14:03.383Z,95439.38
2023-01-20T08:15:05.388Z,95435.28
2023-01-20T08:16:09.746Z,95430.88
2023-01-20T08:17:11.299Z,95434.81
2023-01-20T08:18:12.869Z,95435.75
2023-01-20T08:19:14.400Z,95434.31
2023-01-20T08:20:17.648Z,95434.44
2023-01-20T08:21:25.284Z,95428.47
2023-01-20T08:22:26.837Z,95426.66
2023-01-20T08:23:28.363Z,95431.03
2023-01-20T08:24:30.028Z,95436.09
2023-01-20T08:25:31.548Z,95432.38
2023-01-20T08:26:33.920Z,95430.13
2023-01-20T08:27:35.437Z,95432.16
2023-01-20T08:28:37.077Z,95427.25
2023-01-20T08:29:38.691Z,95432.25
2023-01-20T08:30:40.305Z,95436.53
2023-01-20T08:31:42.504Z,95434.63
2023-01-20T08:32:44.077Z,95440.81
2023-01-20T08:33:45.968Z,95433.56
2023-01-20T08:34:47.608Z,95443.19
2023-01-20T08:35:49.191Z,95440.81
2023-01-20T08:36:53.175Z,95436.28
2023-01-20T08:37:54.764Z,95443.97
2023-01-20T08:38:58.294Z,95444.72
2023-01-20T08:39:59.874Z,95442.75
2023-01-20T08:41:01.844Z,95434.00
2023-01-20T08:42:03.485Z,95431.72
2023-01-20T08:43:04.996Z,95435.25
2023-01-20T08:44:08.213Z,95437.19
2023-01-20T08:45:10.221Z,95434.19
2023-01-20T08:46:13.862Z,95434.91
2023-01-20T08:47:15.474Z,95434.84
2023-01-20T08:48:19.930Z,95442.22
2023-01-20T08:49:23.451Z,95433.47
2023-01-20T08:50:25.240Z,95447.91
2023-01-20T08:51:30.237Z,95443.13
2023-01-20T08:52:31.940Z,95443.78
2023-01-20T08:53:34.435Z,95441.53
2023-01-20T08:54:36.030Z,95443.34
2023-01-20T08:55:37.545Z,95446.47
2023-01-20T08:56:39.209Z,95441.97
2023-01-20T08:57:41.266Z,95437.75
2023-01-20T08:58:43.245Z,95441.53
2023-01-20T08:59:46.790Z,95439.16
2023-01-20T09:00:48.363Z,95434.63
2023-01-20T09:01:49.909Z,95439.38
2023-01-20T09:02:51.555Z,95437.94
2023-01-20T09:04:04.833Z,95440.31
2023-01-20T09:05:08.727Z,95438.88
2023-01-20T09:06:11.375Z,95435.50
2023-01-20T09:07:12.970Z,95437.03
2023-01-20T09:08:15.374Z,95436.53
2023-01-20T09:09:20.334Z,95432.59
2023-01-20T09:10:21.884Z,95444.03
2023-01-20T09:11:26.800Z,95437.47
2023-01-20T09:12:28.367Z,95440.81
2023-01-20T09:13:29.969Z,95436.91
2023-01-20T09:14:31.578Z,95434.22
2023-01-20T09:15:33.146Z,95430.78
2023-01-20T09:16:34.757Z,95435.00
2023-01-20T09:17:36.321Z,95442.25
2023-01-20T09:18:37.840Z,95441.44
2023-01-20T09:19:39.394Z,95456.31
2023-01-20T09:20:40.896Z,95437.09
2023-01-20T09:21:43.707Z,95441.63
2023-01-20T09:22:45.287Z,95445.13
2023-01-20T09:23:48.290Z,95439.00
2023-01-20T09:24:49.854Z,95435.97
2023-01-20T09:25:51.417Z,95442.63
2023-01-20T09:26:53.380Z,95439.13
2023-01-20T09:27:54.893Z,95444.00
2023-01-20T09:28:56.442Z,95440.25
2023-01-20T09:29:58.029Z,95434.91
2023-01-20T09:31:05.704Z,95437.59
2023-01-20T09:32:07.382Z,95432.72
2023-01-20T09:33:13.075Z,95427.84
2023-01-20T09:34:19.559Z,95426.75
2023-01-20T09:35:21.500Z,95421.56
2023-01-20T09:36:23.012Z,95426.97
2023-01-20T09:37:43.094Z,95420.91
2023-01-20T09:39:03.029Z,95422.50
2023-01-20T09:40:23.183Z,95417.97
2023-01-20T09:41:54.523Z,95414.97
2023-01-20T09:43:56.237Z,95408.81
2023-01-20T09:45:09.087Z,95397.34
2023-01-20T09:46:16.291Z,95393.09
2023-01-20T09:47:37.890Z,95391.81
2023-01-20T09:48:58.156Z,95390.91
2023-01-20T09:50:39.593Z,95387.41
2023-01-20T09:52:39.160Z,95378.66
2023-01-20T09:53:50.604Z,95380.41
2023-01-20T09:55:00.357Z,95381.13
2023-01-20T09:56:08.861Z,95378.03
2023-01-20T09:57:12.833Z,95378.50
2023-01-20T09:58:24.966Z,95386.31
2023-01-20T10:00:00.455Z,95396.25
2023-01-20T10:01:14.116Z,95412.47
2023-01-20T10:02:24.715Z,95396.47
2023-01-20T10:03:37.016Z,95404.50
2023-01-20T10:04:43.916Z,95406.13
2023-01-20T10:05:49.896Z,95405.41
2023-01-20T10:07:24.206Z,95401.72
2023-01-20T10:08:55.919Z,95404.91
2023-01-20T10:10:28.578Z,95407.72
2023-01-20T10:11:35.853Z,95402.41
2023-01-20T10:13:06.519Z,95411.78
2023-01-20T10:14:23.084Z,95404.13
2023-01-20T10:15:36.641Z,95401.81
2023-01-20T10:16:42.237Z,95407.88
2023-01-20T10:17:57.921Z,95397.78
2023-01-20T10:19:10.448Z,95404.88
2023-01-20T10:20:17.759Z,95396.78
2023-01-20T10:21:31.506Z,95411.28
2023-01-20T10:22:42.750Z,95425.03
2023-01-20T10:24:04.742Z,95415.97
2023-01-20T10:25:15.246Z,95420.63
2023-01-20T10:26:29.689Z,95432.16
2023-01-20T10:27:33.333Z,95435.25
2023-01-20T10:28:49.830Z,95442.50
2023-01-20T10:30:03.796Z,95459.75
2023-01-20T10:31:05.685Z,95460.56
2023-01-20T10:32:33.499Z,95453.25
2023-01-20T10:33:39.611Z,95441.38
2023-01-20T10:34:45.632Z,95450.88
2023-01-20T10:35:51.609Z,95449.75
2023-01-20T10:37:03.452Z,95451.09
2023-01-20T10:38:19.302Z,95447.22
2023-01-20T10:39:35.055Z,95468.44
2023-01-20T10:40:51.637Z,95468.25
2023-01-20T10:42:01.903Z,95463.50
2023-01-20T10:43:15.427Z,95466.25
2023-01-20T10:44:17.059Z,95456.44
2023-01-20T10:45:38.350Z,95460.13
2023-01-20T10:47:07.953Z,95457.59
2023-01-20T10:48:31.554Z,95456.03
2023-01-20T10:49:45.649Z,95456.81
2023-01-20T10:51:00.117Z,95463.63
2023-01-20T10:52:08.008Z,95465.84
2023-01-20T10:53:48.929Z,95469.34
2023-01-20T10:55:28.273Z,95459.03
2023-01-20T10:56:53.610Z,95456.34
2023-01-20T10:58:01.512Z,95456.47
2023-01-20T10:59:13.591Z,95460.53
2023-01-20T11:00:28.779Z,95460.34
2023-01-20T11:01:30.962Z,95463.28
2023-01-20T11:02:35.459Z,95461.13
2023-01-20T11:03:41.116Z,95458.78
2023-01-20T11:04:43.475Z,95462.25
2023-01-20T11:05:46.814Z,95458.72
2023-01-20T11:06:58.717Z,95459.16
2023-01-20T11:08:02.221Z,95466.91
2023-01-20T11:09:20.921Z,95468.44
2023-01-20T11:10:26.227Z,95474.53
2023-01-20T11:11:29.646Z,95484.41
2023-01-20T11:12:36.645Z,95485.31
2023-01-20T11:13:38.436Z,95493.38
2023-01-20T11:14:40.537Z,95494.59
2023-01-20T11:15:46.530Z,95492.34
2023-01-20T11:16:54.216Z,95483.94
2023-01-20T11:18:14.053Z,95485.31
2023-01-20T11:19:15.598Z,95491.31
2023-01-20T11:20:20.846Z,95481.41
2023-01-20T11:21:27.183Z,95485.19
2023-01-20T11:22:37.597Z,95482.47
2023-01-20T11:23:42.425Z,95482.47
2023-01-20T11:24:45.514Z,95484.28
2023-01-20T11:26:02.367Z,95489.41
2023-01-20T11:27:14.097Z,95483.41
2023-01-20T11:28:18.495Z,95489.06
2023-01-20T11:29:19.977Z,95494.19
2023-01-20T11:30:31.056Z,95487.34
2023-01-20T11:31:41.760Z,95480.47
2023-01-20T11:32:43.351Z,95480.34
2023-01-20T11:34:15.161Z,95482.53
2023-01-20T11:35:21.288Z,95485.84
2023-01-20T11:36:24.135Z,95490.31
2023-01-20T11:37:37.252Z,95487.38
2023-01-20T11:38:44.646Z,95481.97
2023-01-20T11:39:49.278Z,95484.16
2023-01-20T11:40:54.957Z,95487.94
2023-01-20T11:42:23.661Z,95486.91
2023-01-20T11:43:35.559Z,95485.72
2023-01-20T11:44:44.048Z,95486.50
2023-01-20T11:45:45.596Z,95479.72
2023-01-20T11:46:47.172Z,95479.72
2023-01-20T11:48:16.244Z,95475.16
2023-01-20T11:49:22.514Z,95495.03
2023-01-20T11:50:35.198Z,95495.28
2023-01-20T11:51:45.353Z,95487.69
2023-01-20T11:52:47.456Z,95492.00
2023-01-20T11:53:49.479Z,95497.34
2023-01-20T11:55:12.668Z,95499.66
2023-01-20T11:56:26.399Z,95507.25
2023-01-20T11:57:27.952Z,95506.53
2023-01-20T11:58:34.096Z,95499.59
2023-01-20T11:59:46.328Z,95499.50
2023-01-20T12:00:51.545Z,95497.06
2023-01-20T12:02:01.578Z,95500.47
2023-01-20T12:03:18.226Z,95495.06
2023-01-20T12:04:23.400Z,95499.75
2023-01-20T12:05:39.490Z,95490.19
2023-01-20T12:07:10.500Z,95502.56
2023-01-20T12:08:17.728Z,95503.09
2023-01-20T12:09:25.940Z,95504.75
2023-01-20T12:10:32.302Z,95505.97
2023-01-20T12:11:38.338Z,95500.28
2023-01-20T12:12:45.388Z,95513.97
2023-01-20T12:14:20.868Z,95504.50
2023-01-20T12:15:25.583Z,95491.63
2023-01-20T12:16:30.812Z,95497.03
2023-01-20T12:18:08.196Z,95492.94
2023-01-20T12:19:18.008Z,95492.94
2023-01-20T12:20:42.361Z,95491.13
2023-01-20T12:21:53.287Z,95498.16
2023-01-20T12:23:14.180Z,95495.19
2023-01-20T12:24:56.719Z,95503.34
2023-01-20T12:26:02.474Z,95501.94
2023-01-20T12:27:04.155Z,95507.28
2023-01-20T12:28:15.323Z,95520.19
2023-01-20T12:29:38.234Z,95523.19
2023-01-20T12:30:45.766Z,95514.84
2023-01-20T12:31:49.229Z,95524.81
2023-01-20T12:32:51.073Z,95524.56
2023-01-20T12:34:11.490Z,95525.09
2023-01-20T12:35:14.959Z,95525.53
2023-01-20T12:36:33.294Z,95529.06
2023-01-20T12:38:18.185Z,95534.47
2023-01-20T12:39:47.594Z,95539.81
2023-01-20T12:40:53.044Z,95545.16
2023-01-20T12:42:31.215Z,95548.25
2023-01-20T12:43:51.822Z,95547.16
2023-01-20T12:44:59.119Z,95536.81
2023-01-20T12:46:23.599Z,95550.47
2023-01-20T12:48:03.642Z,95550.66
2023-01-20T12:49:27.796Z,95545.41
2023-01-20T12:50:51.946Z,95542.41
2023-01-20T12:52:13.275Z,95543.28
2023-01-20T12:53:17.863Z,95543.34
2023-01-20T12:54:48.769Z,95530.78
2023-01-20T12:56:13.755Z,95525.31
2023-01-20T12:57:18.122Z,95530.03
2023-01-20T12:58:43.288Z,95526.69
2023-01-20T13:00:15.060Z,95523.66
2023-01-20T13:01:25.920Z,95529.50
2023-01-20T13:02:37.746Z,95526.56
2023-01-20T13:04:01.574Z,95534.41